createdAt,value
2022-09-11T00:01:37.850Z,9.30
2022-09-11T00:04:06.335Z,9.40
2022-09-11T00:06:34.800Z,8.05
2022-09-11T00:09:05.647Z,8.13
2022-09-11T00:11:39.624Z,9.73
2022-09-11T00:14:08.015Z,8.57
2022-09-11T00:16:39.181Z,6.30
2022-09-11T00:19:09.556Z,6.45
2022-09-11T00:21:37.676Z,7.07
2022-09-11T00:24:06.454Z,5.78
2022-09-11T00:26:35.826Z,6.70
2022-09-11T00:29:04.336Z,10.30
2022-09-11T00:31:32.875Z,7.20
2022-09-11T00:34:01.134Z,7.45
2022-09-11T00:36:31.683Z,9.02
2022-09-11T00:39:01.293Z,7.30
2022-09-11T00:41:31.996Z,6.90
2022-09-11T00:44:04.008Z,6.68
2022-09-11T00:46:38.465Z,6.97
2022-09-11T00:49:17.570Z,8.05
2022-09-11T00:51:48.874Z,8.00
2022-09-11T00:54:21.578Z,7.07
2022-09-11T00:56:50.744Z,7.13
2022-09-11T00:59:25.260Z,11.25
2022-09-11T01:01:53.668Z,10.18
2022-09-11T01:04:23.285Z,7.97
2022-09-11T01:06:52.880Z,8.35
2022-09-11T01:09:21.144Z,8.63
2022-09-11T01:11:56.899Z,8.07
2022-09-11T01:14:39.448Z,10.55
2022-09-11T01:17:18.268Z,7.68
2022-09-11T01:20:10.403Z,9.75
2022-09-11T01:22:59.189Z,8.15
2022-09-11T01:25:32.588Z,8.20
2022-09-11T01:28:09.738Z,9.68
2022-09-11T01:30:42.060Z,7.35
2022-09-11T01:33:22.891Z,9.88
2022-09-11T01:36:00.976Z,7.78
2022-09-11T01:38:35.835Z,7.55
2022-09-11T01:41:09.082Z,8.95
2022-09-11T01:43:43.685Z,7.65
2022-09-11T01:46:17.633Z,11.48
2022-09-11T01:48:49.345Z,9.60
2022-09-11T01:51:23.899Z,7.22
2022-09-11T01:53:53.384Z,8.18
2022-09-11T01:56:25.353Z,8.15
2022-09-11T01:58:59.636Z,8.35
2022-09-11T02:01:33.835Z,9.45
2022-09-11T02:04:07.531Z,9.23
2022-09-11T02:06:42.326Z,9.27
2022-09-11T02:09:15.501Z,8.43
2022-09-11T02:11:45.276Z,10.57
2022-09-11T02:14:21.357Z,10.50
2022-09-11T02:16:53.692Z,8.15
2022-09-11T02:19:26.200Z,8.15
2022-09-11T02:21:54.531Z,7.45
2022-09-11T02:24:23.536Z,12.65
2022-09-11T02:26:59.600Z,10.38
2022-09-11T02:29:29.072Z,10.07
2022-09-11T02:31:57.389Z,9.70
2022-09-11T02:34:28.108Z,13.27
2022-09-11T02:37:11.704Z,9.27
2022-09-11T02:39:55.020Z,11.27
2022-09-11T02:42:40.238Z,11.43
2022-09-11T02:45:24.758Z,7.05
2022-09-11T02:48:04.323Z,8.40
2022-09-11T02:50:40.805Z,9.52
2022-09-11T02:53:16.007Z,10.38
2022-09-11T02:56:15.060Z,7.53
2022-09-11T02:58:48.318Z,7.05
2022-09-11T03:01:18.575Z,8.80
2022-09-11T03:03:47.743Z,11.60
2022-09-11T03:06:19.271Z,9.95
2022-09-11T03:08:47.852Z,10.32
2022-09-11T03:11:17.798Z,11.00
2022-09-11T03:13:46.876Z,10.73
2022-09-11T03:16:14.876Z,9.98
2022-09-11T03:18:44.327Z,10.18
2022-09-11T03:21:12.566Z,7.72
2022-09-11T03:23:40.970Z,8.52
2022-09-11T03:26:09.278Z,9.65
2022-09-11T03:28:37.548Z,8.98
2022-09-11T03:31:06.211Z,8.20
2022-09-11T03:33:35.081Z,6.85
2022-09-11T03:36:04.852Z,7.80
2022-09-11T03:38:33.027Z,10.25
2022-09-11T03:41:02.859Z,8.88
2022-09-11T03:43:31.211Z,7.53
2022-09-11T03:46:00.643Z,5.90
2022-09-11T03:48:29.349Z,8.52
2022-09-11T03:50:59.089Z,9.23
2022-09-11T03:53:28.647Z,7.00
2022-09-11T03:55:56.632Z,12.10
2022-09-11T03:58:24.594Z,8.45
2022-09-11T04:00:52.707Z,7.72
2022-09-11T04:03:20.819Z,9.27
2022-09-11T04:05:59.537Z,9.13
2022-09-11T04:08:33.562Z,9.45
2022-09-11T04:11:03.740Z,9.68
2022-09-11T04:13:33.616Z,7.63
2022-09-11T04:16:03.425Z,7.43
2022-09-11T04:18:32.527Z,9.98
2022-09-11T04:21:00.521Z,11.18
2022-09-11T04:23:30.317Z,12.18
2022-09-11T04:25:58.383Z,9.05
2022-09-11T04:28:26.343Z,10.88
2022-09-11T04:30:54.777Z,8.70
2022-09-11T04:33:22.933Z,12.68
2022-09-11T04:35:50.893Z,13.63
2022-09-11T04:38:19.650Z,10.70
2022-09-11T04:40:49.948Z,10.02
2022-09-11T04:43:18.136Z,9.23
2022-09-11T04:45:46.157Z,8.48
2022-09-11T04:48:14.142Z,10.55
2022-09-11T04:50:42.469Z,7.93
2022-09-11T04:53:10.464Z,9.57
2022-09-11T04:55:38.447Z,8.90
2022-09-11T04:58:07.796Z,11.80
2022-09-11T05:00:35.896Z,10.38
2022-09-11T05:03:03.929Z,10.88
2022-09-11T05:05:31.923Z,8.35
2022-09-11T05:07:59.937Z,8.27
2022-09-11T05:10:28.935Z,8.57
2022-09-11T05:12:57.003Z,7.15
2022-09-11T05:15:26.429Z,9.27
2022-09-11T05:17:54.775Z,11.63
2022-09-11T05:20:22.793Z,11.40
2022-09-11T05:22:54.013Z,8.93
2022-09-11T05:25:22.082Z,10.95
2022-09-11T05:27:50.223Z,9.95
2022-09-11T05:30:18.524Z,9.25
2022-09-11T05:32:48.131Z,10.30
2022-09-11T05:35:16.972Z,5.90
2022-09-11T05:37:44.966Z,8.25
2022-09-11T05:40:13.477Z,7.28
2022-09-11T05:42:41.518Z,8.85
2022-09-11T05:45:10.319Z,7.70
2022-09-11T05:47:38.954Z,7.15
2022-09-11T05:50:09.703Z,7.68
2022-09-11T05:52:38.337Z,7.53
2022-09-11T05:55:07.054Z,10.38
2022-09-11T05:57:35.030Z,6.95
2022-09-11T06:00:04.063Z,8.73
2022-09-11T06:02:32.178Z,5.53
2022-09-11T06:05:00.256Z,9.20
2022-09-11T06:07:29.797Z,7.55
2022-09-11T06:10:02.941Z,15.05
2022-09-11T06:12:31.721Z,11.50
2022-09-11T06:14:59.777Z,9.43
2022-09-11T06:17:28.376Z,11.75
2022-09-11T06:19:56.450Z,6.95
2022-09-11T06:22:24.445Z,6.97
2022-09-11T06:24:53.869Z,7.00
2022-09-11T06:27:21.937Z,7.00
2022-09-11T06:29:50.398Z,8.40
2022-09-11T06:32:19.985Z,4.85
2022-09-11T06:34:48.031Z,8.20
2022-09-11T06:37:16.031Z,5.93
2022-09-11T06:39:44.030Z,6.68
2022-09-11T06:42:13.506Z,8.73
2022-09-11T06:44:42.042Z,6.78
2022-09-11T06:47:10.005Z,4.45
2022-09-11T06:49:38.078Z,5.07
2022-09-11T06:52:06.088Z,7.22
2022-09-11T06:54:34.122Z,8.52
2022-09-11T06:57:02.256Z,6.75
2022-09-11T06:59:32.262Z,8.15
2022-09-11T07:02:01.052Z,4.55
2022-09-11T07:04:29.068Z,4.85
2022-09-11T07:06:57.188Z,6.15
2022-09-11T07:09:25.185Z,5.28
2022-09-11T07:11:53.959Z,4.90
2022-09-11T07:14:23.420Z,3.60
2022-09-11T07:16:55.980Z,6.13
2022-09-11T07:19:25.010Z,6.32
2022-09-11T07:21:53.051Z,5.18
2022-09-11T07:24:21.286Z,6.45
2022-09-11T07:26:49.302Z,4.97
2022-09-11T07:29:18.031Z,7.82
2022-09-11T07:31:46.635Z,10.98
2022-09-11T07:34:15.982Z,4.70
2022-09-11T07:36:45.537Z,6.72
2022-09-11T07:39:13.608Z,5.32
2022-09-11T07:41:41.573Z,3.67
2022-09-11T07:44:09.855Z,3.90
2022-09-11T07:46:41.602Z,4.18
2022-09-11T07:49:10.245Z,8.35
2022-09-11T07:51:40.448Z,3.15
2022-09-11T07:54:08.837Z,11.32
2022-09-11T07:56:36.938Z,6.22
2022-09-11T07:59:08.994Z,5.18
2022-09-11T08:01:37.050Z,7.22
2022-09-11T08:04:07.162Z,7.72
2022-09-11T08:06:37.271Z,4.47
2022-09-11T08:09:09.099Z,5.63
2022-09-11T08:11:39.133Z,4.00
2022-09-11T08:14:07.442Z,6.57
2022-09-11T08:16:36.383Z,2.78
2022-09-11T08:19:05.379Z,3.92
2022-09-11T08:21:34.085Z,7.97
2022-09-11T08:24:03.975Z,5.28
2022-09-11T08:26:37.236Z,6.53
2022-09-11T08:29:06.495Z,5.88
2022-09-11T08:31:35.385Z,5.53
2022-09-11T08:34:03.575Z,5.80
2022-09-11T08:36:31.545Z,3.30
2022-09-11T08:39:02.878Z,5.28
2022-09-11T08:41:41.126Z,4.60
2022-09-11T08:44:17.980Z,3.80
2022-09-11T08:46:49.224Z,5.78
2022-09-11T08:49:24.462Z,7.55
2022-09-11T08:51:54.642Z,5.75
2022-09-11T08:54:29.064Z,4.13
2022-09-11T08:57:12.287Z,6.15
2022-09-11T08:59:58.013Z,4.95
2022-09-11T09:02:51.033Z,5.45
2022-09-11T09:05:29.186Z,5.45
2022-09-11T09:08:09.936Z,5.10
2022-09-11T09:10:52.224Z,5.15
2022-09-11T09:13:46.636Z,5.35
2022-09-11T09:16:29.395Z,5.15
2022-09-11T09:19:04.452Z,3.90
2022-09-11T09:21:38.478Z,4.03
2022-09-11T09:24:19.463Z,5.00
2022-09-11T09:26:52.846Z,3.85
2022-09-11T09:29:24.456Z,5.35
2022-09-11T09:31:56.619Z,6.68
2022-09-11T09:34:27.713Z,6.63
2022-09-11T09:37:03.411Z,4.13
2022-09-11T09:39:32.004Z,5.28
2022-09-11T09:42:13.521Z,5.65
2022-09-11T09:45:01.449Z,4.88
2022-09-11T09:47:30.939Z,7.25
2022-09-11T09:49:59.524Z,7.13
2022-09-11T09:52:36.101Z,7.85
2022-09-11T09:55:06.825Z,4.10
2022-09-11T09:57:37.128Z,9.90
2022-09-11T10:00:16.017Z,6.07
2022-09-11T10:02:45.521Z,5.38
2022-09-11T10:05:27.818Z,8.00
2022-09-11T10:07:58.619Z,7.28
2022-09-11T10:10:30.132Z,4.88
2022-09-11T10:13:18.161Z,5.60
2022-09-11T10:15:50.310Z,3.78
2022-09-11T10:18:24.466Z,4.75
2022-09-11T10:20:52.921Z,5.38
2022-09-11T10:23:24.713Z,4.88
2022-09-11T10:25:53.341Z,5.13
2022-09-11T10:28:29.347Z,3.88
2022-09-11T10:31:02.509Z,5.20
2022-09-11T10:33:33.064Z,4.20
2022-09-11T10:36:04.207Z,4.85
2022-09-11T10:38:39.286Z,5.57
2022-09-11T10:41:19.037Z,4.82
2022-09-11T10:43:50.806Z,3.40
2022-09-11T10:46:39.668Z,7.72
2022-09-11T10:49:18.666Z,3.60
2022-09-11T10:52:01.231Z,7.65
2022-09-11T10:54:44.602Z,7.30
2022-09-11T10:57:19.110Z,3.40
2022-09-11T11:00:13.397Z,3.58
2022-09-11T11:02:45.598Z,3.90
2022-09-11T11:05:21.483Z,3.78
2022-09-11T11:08:19.526Z,3.50
2022-09-11T11:11:12.766Z,8.25
2022-09-11T11:14:05.723Z,4.80
2022-09-11T11:16:44.179Z,3.50
2022-09-11T11:19:43.644Z,3.80
2022-09-11T11:22:24.778Z,4.55
2022-09-11T11:25:08.554Z,6.60
2022-09-11T11:28:01.595Z,3.47
2022-09-11T11:30:35.229Z,2.75
2022-09-11T11:33:32.229Z,5.07
2022-09-11T11:36:05.491Z,2.53
2022-09-11T11:38:40.702Z,3.63
2022-09-11T11:41:14.428Z,3.25
2022-09-11T11:43:45.209Z,3.08
2022-09-11T11:46:19.495Z,6.20
2022-09-11T11:48:54.692Z,4.47
2022-09-11T11:51:28.440Z,3.47
2022-09-11T11:54:04.142Z,3.55
2022-09-11T11:56:41.122Z,3.20
2022-09-11T11:59:15.998Z,4.50
2022-09-11T12:01:48.311Z,3.08
2022-09-11T12:04:33.993Z,3.70
2022-09-11T12:07:05.809Z,3.72
2022-09-11T12:09:34.192Z,9.20
2022-09-11T12:12:08.051Z,2.13
2022-09-11T12:14:36.252Z,2.88
2022-09-11T12:17:20.267Z,3.92
2022-09-11T12:20:17.503Z,2.20
2022-09-11T12:22:48.889Z,4.93
2022-09-11T12:26:05.493Z,4.50
2022-09-11T12:28:35.852Z,3.83
2022-09-11T12:31:07.050Z,5.13
2022-09-11T12:33:55.914Z,3.45
2022-09-11T12:36:33.953Z,3.08
2022-09-11T12:39:07.630Z,3.67
2022-09-11T12:41:37.851Z,3.67
2022-09-11T12:44:06.538Z,4.28
2022-09-11T12:47:14.654Z,2.90
2022-09-11T12:49:52.557Z,3.97
2022-09-11T12:52:31.988Z,2.90
2022-09-11T12:55:05.680Z,3.55
2022-09-11T12:57:37.382Z,4.82
2022-09-11T13:00:09.595Z,3.90
2022-09-11T13:02:40.623Z,2.13
2022-09-11T13:05:18.737Z,2.88
2022-09-11T13:07:50.838Z,2.65
2022-09-11T13:10:33.360Z,3.83
2022-09-11T13:13:03.917Z,4.82
2022-09-11T13:15:43.239Z,3.78
2022-09-11T13:18:33.083Z,3.45
2022-09-11T13:21:14.815Z,4.32
2022-09-11T13:23:43.694Z,4.20
2022-09-11T13:26:20.889Z,4.47
2022-09-11T13:28:51.625Z,3.13
2022-09-11T13:31:24.074Z,6.45
2022-09-11T13:33:53.880Z,4.22
2022-09-11T13:36:25.132Z,4.60
2022-09-11T13:38:58.263Z,4.38
2022-09-11T13:41:30.836Z,4.22
2022-09-11T13:44:00.798Z,3.25
2022-09-11T13:46:31.495Z,3.22
2022-09-11T13:49:15.772Z,5.32
2022-09-11T13:51:46.370Z,2.40
2022-09-11T13:54:18.470Z,2.72
2022-09-11T13:57:11.413Z,4.45
2022-09-11T13:59:43.088Z,2.97
2022-09-11T14:02:56.168Z,2.65
2022-09-11T14:05:26.696Z,5.68
2022-09-11T14:08:01.237Z,3.33
2022-09-11T14:10:33.265Z,2.97
2022-09-11T14:13:15.232Z,2.67
2022-09-11T14:15:49.134Z,3.15
2022-09-11T14:18:27.138Z,2.83
2022-09-11T14:20:57.108Z,3.17
2022-09-11T14:23:27.556Z,3.40
2022-09-11T14:26:14.881Z,4.13
2022-09-11T14:29:04.353Z,3.83
2022-09-11T14:31:35.994Z,3.50
2022-09-11T14:34:12.417Z,5.32
2022-09-11T14:36:44.200Z,4.57
2022-09-11T14:39:17.173Z,4.63
2022-09-11T14:41:46.148Z,6.28
2022-09-11T14:44:18.236Z,6.35
2022-09-11T14:46:46.251Z,4.45
2022-09-11T14:49:15.424Z,3.15
2022-09-11T14:51:43.983Z,4.00
2022-09-11T14:54:17.227Z,4.47
2022-09-11T14:56:46.880Z,5.47
2022-09-11T14:59:16.391Z,5.88
2022-09-11T15:01:45.316Z,5.65
2022-09-11T15:04:19.590Z,3.50
2022-09-11T15:06:50.435Z,2.97
2022-09-11T15:09:18.540Z,4.38
2022-09-11T15:11:46.544Z,3.83
2022-09-11T15:14:32.570Z,3.88
2022-09-11T15:17:08.396Z,5.38
2022-09-11T15:19:37.779Z,4.47
2022-09-11T15:22:06.755Z,6.00
2022-09-11T15:24:35.715Z,5.80
2022-09-11T15:27:03.893Z,5.25
2022-09-11T15:29:34.559Z,4.93
2022-09-11T15:32:03.839Z,5.43
2022-09-11T15:34:33.424Z,4.65
2022-09-11T15:37:01.484Z,4.95
2022-09-11T15:39:29.754Z,3.53
2022-09-11T15:41:58.233Z,8.90
2022-09-11T15:44:28.715Z,5.18
2022-09-11T15:46:59.728Z,6.95
2022-09-11T15:49:30.193Z,5.75
2022-09-11T15:51:59.495Z,4.43
2022-09-11T15:54:29.537Z,8.93
2022-09-11T15:56:57.661Z,7.05
2022-09-11T15:59:25.775Z,7.55
2022-09-11T16:01:53.992Z,5.40
2022-09-11T16:04:28.350Z,6.13
2022-09-11T16:06:56.650Z,6.43
2022-09-11T16:09:26.512Z,6.57
2022-09-11T16:11:56.171Z,4.95
2022-09-11T16:14:27.317Z,4.45
2022-09-11T16:16:58.318Z,4.28
2022-09-11T16:19:29.361Z,6.22
2022-09-11T16:21:59.814Z,4.88
2022-09-11T16:24:29.341Z,7.40
2022-09-11T16:26:57.592Z,3.90
2022-09-11T16:29:49.322Z,6.18
2022-09-11T16:32:28.978Z,6.00
2022-09-11T16:34:59.815Z,3.78
2022-09-11T16:37:28.309Z,6.70
2022-09-11T16:39:56.988Z,5.35
2022-09-11T16:42:26.556Z,7.50
2022-09-11T16:44:54.685Z,7.30
2022-09-11T16:47:22.884Z,5.13
2022-09-11T16:50:08.036Z,4.53
2022-09-11T16:52:39.222Z,4.00
2022-09-11T16:55:09.715Z,5.43
2022-09-11T16:57:38.030Z,4.70
2022-09-11T17:00:07.489Z,5.68
2022-09-11T17:02:35.721Z,6.57
2022-09-11T17:05:06.126Z,5.40
2022-09-11T17:07:34.183Z,8.68
2022-09-11T17:10:04.298Z,7.40
2022-09-11T17:12:32.821Z,5.63
2022-09-11T17:15:00.927Z,6.57
2022-09-11T17:17:29.065Z,6.22
2022-09-11T17:19:59.428Z,7.47
2022-09-11T17:22:30.012Z,8.27
2022-09-11T17:24:58.093Z,4.25
2022-09-11T17:27:27.914Z,6.63
2022-09-11T17:29:57.904Z,5.78
2022-09-11T17:32:28.648Z,4.47
2022-09-11T17:34:58.690Z,6.40
2022-09-11T17:37:27.814Z,7.68
2022-09-11T17:39:56.279Z,5.90
2022-09-11T17:42:24.573Z,5.28
2022-09-11T17:44:54.486Z,7.00
2022-09-11T17:47:22.971Z,6.85
2022-09-11T17:49:51.792Z,7.75
2022-09-11T17:52:20.569Z,5.53
2022-09-11T17:54:49.267Z,8.00
2022-09-11T17:57:17.965Z,5.88
2022-09-11T17:59:50.126Z,6.68
2022-09-11T18:02:21.563Z,10.23
2022-09-11T18:04:49.998Z,5.60
2022-09-11T18:07:19.542Z,6.40
2022-09-11T18:09:49.054Z,8.32
2022-09-11T18:12:19.754Z,9.38
2022-09-11T18:14:48.514Z,7.93
2022-09-11T18:17:17.059Z,11.57
2022-09-11T18:19:47.753Z,8.60
2022-09-11T18:22:17.102Z,10.40
2022-09-11T18:24:45.960Z,7.95
2022-09-11T18:27:14.625Z,8.95
2022-09-11T18:29:43.453Z,8.00
2022-09-11T18:32:12.042Z,7.80
2022-09-11T18:34:41.229Z,8.10
2022-09-11T18:37:11.717Z,11.30
2022-09-11T18:39:40.522Z,12.90
2022-09-11T18:42:09.223Z,18.05
2022-09-11T18:44:37.791Z,13.05
2022-09-11T18:47:06.724Z,11.88
2022-09-11T18:49:35.456Z,12.32
2022-09-11T18:52:04.967Z,12.90
2022-09-11T18:54:35.362Z,11.73
2022-09-11T18:57:04.278Z,10.63
2022-09-11T18:59:33.578Z,12.07
2022-09-11T19:02:02.511Z,12.65
2022-09-11T19:04:31.821Z,17.25
2022-09-11T19:07:00.540Z,16.55
2022-09-11T19:09:29.525Z,13.80
2022-09-11T19:12:00.475Z,13.85
2022-09-11T19:14:29.332Z,9.38
2022-09-11T19:17:00.126Z,10.05
2022-09-11T19:19:29.076Z,8.18
2022-09-11T19:21:57.824Z,9.05
2022-09-11T19:24:28.660Z,7.93
2022-09-11T19:27:00.213Z,8.30
2022-09-11T19:29:29.191Z,7.70
2022-09-11T19:31:57.971Z,8.85
2022-09-11T19:34:26.463Z,8.23
2022-09-11T19:36:55.508Z,11.38
2022-09-11T19:39:24.858Z,9.35
2022-09-11T19:41:53.633Z,8.43
2022-09-11T19:44:25.383Z,8.70
2022-09-11T19:46:56.307Z,9.98
2022-09-11T19:49:25.149Z,10.65
2022-09-11T19:51:54.902Z,15.50
2022-09-11T19:54:23.582Z,12.27
2022-09-11T19:56:51.837Z,11.82
2022-09-11T19:59:20.883Z,14.25
2022-09-11T20:01:50.593Z,11.13
2022-09-11T20:04:19.240Z,14.88
2022-09-11T20:09:32.115Z,12.70
2022-09-11T20:12:01.548Z,14.50
2022-09-11T20:14:30.487Z,10.25
2022-09-11T20:17:01.147Z,11.88
2022-09-11T20:19:30.237Z,10.93
2022-09-11T20:22:00.343Z,10.40
2022-09-11T20:24:28.828Z,11.23
2022-09-11T20:26:56.856Z,10.65
2022-09-11T20:29:25.581Z,11.25
2022-09-11T20:31:56.012Z,9.55
2022-09-11T20:34:28.166Z,8.93
2022-09-11T20:37:00.844Z,8.77
2022-09-11T20:39:29.113Z,10.15
2022-09-11T20:41:57.217Z,7.70
2022-09-11T20:44:25.417Z,7.85
2022-09-11T20:46:53.876Z,8.32
2022-09-11T20:49:21.897Z,7.97
2022-09-11T20:51:51.363Z,8.40
2022-09-11T20:54:19.341Z,6.63
2022-09-11T20:56:47.377Z,6.88
2022-09-11T20:59:15.858Z,9.00
2022-09-11T21:01:44.281Z,7.10
2022-09-11T21:04:12.284Z,6.53
2022-09-11T21:06:40.283Z,6.68
2022-09-11T21:09:12.066Z,7.70
2022-09-11T21:11:41.732Z,7.95
2022-09-11T21:14:10.751Z,7.65
2022-09-11T21:16:38.813Z,8.13
2022-09-11T21:19:07.544Z,9.20
2022-09-11T21:21:37.885Z,9.18
2022-09-11T21:24:09.081Z,7.88
2022-09-11T21:26:38.780Z,7.30
2022-09-11T21:29:09.267Z,8.00
2022-09-11T21:31:37.329Z,7.85
2022-09-11T21:34:08.321Z,8.25
2022-09-11T21:36:37.278Z,8.65
2022-09-11T21:39:05.698Z,8.43
2022-09-11T21:41:33.758Z,9.90
2022-09-11T21:44:04.050Z,7.43
2022-09-11T21:46:32.196Z,8.13
2022-09-11T21:49:01.741Z,7.97
2022-09-11T21:51:29.940Z,7.60
2022-09-11T21:54:02.269Z,11.07
2022-09-11T21:56:32.833Z,7.55
2022-09-11T21:59:02.472Z,7.30
2022-09-11T22:01:32.909Z,9.00
2022-09-11T22:04:01.977Z,8.75
2022-09-11T22:06:30.627Z,8.20
2022-09-11T22:08:58.980Z,7.78
2022-09-11T22:11:27.566Z,7.93
2022-09-11T22:13:56.254Z,8.80
2022-09-11T22:16:26.091Z,7.85
2022-09-11T22:18:55.728Z,7.72
2022-09-11T22:21:24.134Z,8.07
2022-09-11T22:23:52.584Z,9.05
2022-09-11T22:26:23.698Z,7.43
2022-09-11T22:28:51.831Z,6.80
2022-09-11T22:31:21.890Z,8.00
2022-09-11T22:33:51.491Z,6.80
2022-09-11T22:36:21.372Z,6.32
2022-09-11T22:38:50.050Z,6.90
2022-09-11T22:41:18.467Z,5.88
2022-09-11T22:43:47.628Z,6.30
2022-09-11T22:46:16.396Z,5.95
2022-09-11T22:48:44.966Z,5.97
2022-09-11T22:51:14.465Z,7.40
2022-09-11T22:53:43.343Z,6.25
2022-09-11T22:56:13.871Z,7.93
2022-09-11T22:58:42.397Z,8.52
2022-09-11T23:01:12.231Z,8.50
2022-09-11T23:03:40.382Z,6.47
2022-09-11T23:06:26.544Z,8.20
2022-09-11T23:08:56.882Z,7.28
2022-09-11T23:11:25.393Z,6.35
2022-09-11T23:13:53.758Z,7.38
2022-09-11T23:16:24.141Z,7.72
2022-09-11T23:18:54.844Z,6.85
2022-09-11T23:21:23.017Z,6.20
2022-09-11T23:23:54.457Z,7.63
2022-09-11T23:26:25.430Z,7.15
2022-09-11T23:28:54.359Z,6.75
2022-09-11T23:31:25.568Z,6.28
2022-09-11T23:33:56.249Z,8.63
2022-09-11T23:36:25.318Z,7.55
2022-09-11T23:38:53.541Z,6.63
2022-09-11T23:41:23.665Z,6.93
2022-09-11T23:43:52.203Z,6.88
2022-09-11T23:46:20.589Z,7.47
2022-09-11T23:48:49.053Z,6.07
2022-09-11T23:51:17.678Z,7.18
2022-09-11T23:53:52.108Z,6.50
2022-09-11T23:56:21.002Z,5.85
2022-09-11T23:58:50.928Z,6.15
